createdAt,value
2019-04-06T09:41:50.487Z,20.07
2019-04-06T09:44:21.987Z,19.33
2019-04-06T09:47:04.298Z,18.97
2019-04-06T09:49:45.164Z,18.10
2019-04-06T09:52:25.735Z,20.63
2019-04-06T09:55:03.395Z,21.40
2019-04-06T09:57:38.158Z,19.93
2019-04-06T10:00:19.953Z,19.07
2019-04-06T10:02:54.941Z,20.17
2019-04-06T10:05:32.471Z,19.27
2019-04-06T10:08:16.071Z,19.37
2019-04-06T10:10:47.586Z,20.47
2019-04-06T10:13:28.036Z,20.17
2019-04-06T10:16:16.011Z,22.00
2019-04-06T10:18:49.123Z,22.13
2019-04-06T10:21:24.118Z,21.33
2019-04-06T10:23:59.773Z,17.87
2019-04-06T10:26:49.757Z,19.53
2019-04-06T10:29:47.724Z,20.90
2019-04-06T10:32:21.006Z,14.23
2019-04-06T10:34:56.139Z,14.77
2019-04-06T10:37:39.812Z,18.53
2019-04-06T10:40:20.645Z,19.43
2019-04-06T10:43:04.335Z,17.90
2019-04-06T10:45:52.417Z,17.97
2019-04-06T10:48:35.910Z,18.40
2019-04-06T10:51:11.992Z,20.03
2019-04-06T10:53:43.454Z,21.20
2019-04-06T10:56:26.973Z,18.60
2019-04-06T10:58:58.527Z,19.20
2019-04-06T11:01:46.728Z,18.43
2019-04-06T11:04:25.229Z,15.33
2019-04-06T11:07:13.944Z,17.57
2019-04-06T11:09:45.408Z,18.67
2019-04-06T11:12:29.580Z,21.30
2019-04-06T11:15:13.707Z,18.33
2019-04-06T11:17:48.419Z,17.67
2019-04-06T11:20:32.034Z,17.30
2019-04-06T11:23:06.479Z,16.33
2019-04-06T11:25:38.003Z,16.63
2019-04-06T11:28:18.462Z,17.23
2019-04-06T11:30:50.292Z,15.90
2019-04-06T11:33:24.705Z,18.93
2019-04-06T11:35:58.875Z,17.83
2019-04-06T11:38:30.399Z,15.33
2019-04-06T11:41:07.861Z,14.73
2019-04-06T11:43:55.551Z,15.17
2019-04-06T11:46:27.012Z,14.37
2019-04-06T11:49:07.148Z,12.97
2019-04-06T11:51:50.908Z,16.10
2019-04-06T11:54:22.366Z,17.33
2019-04-06T11:56:53.884Z,11.23
2019-04-06T11:59:31.455Z,8.93
2019-04-06T12:02:02.964Z,10.77
2019-04-06T12:04:46.205Z,11.63
2019-04-06T12:07:34.090Z,13.57
2019-04-06T12:10:26.548Z,10.20
2019-04-06T12:12:59.091Z,11.93
2019-04-06T12:15:35.579Z,10.67
2019-04-06T12:18:07.627Z,8.33
2019-04-06T12:20:45.071Z,11.00
2019-04-06T12:23:19.850Z,13.67
2019-04-06T12:26:03.778Z,13.30
